Capitol Logistics 404


KBNA
Nashville International Airport
Nashville, Tennessee, US
KMSY
Louis Armstrong New Orleans International Airport
New Orleans, Louisiana, US

Activity Log

Date Flight Route Aircraft Duration
12/21/2019 CPX404 LBY MEI IGB HRTUN CHSNE2 B752 1h 25m
09/19/2019 CPX404 N0464F340 DRURY3 HAGIE IGB MEI RYTHM4 B752 1h 11m
06/11/2019 CPX404 KBNA DRURY3 JALAR MEI RYTHM4 KMSY B752 1h 30m
02/14/2019 CPX404 LBY MEI IGB HRTUN CHSNE2 B752 1h 23m

Route Details

Aircraft Information
Primary: Boeing 757-200SF
Backup: Boeing 737-800BCF
Route Data
Distance: 410nm
Sched. Duration: 1h 30m
Avg. Duration: 1h 22m (-8m)
Times Flown: 4
Recm'd Route: LBY MEI IGB HRTUN CHSNE2
Planned Altitude: 36,000ft
Origin Wx: KBNA 271153Z 34004KT 10SM BKN036 00/M09 A3022 RMK AO2 SLP236 60000 70002 T00001089 10011 20000 51004
Dest. Wx: KMSY 271153Z 33007KT 10SM FEW030 06/M01 A3036 RMK AO2 SLP282 T00611006 10094 20061 53009
Notes:

Financial History
Total Freight: 217,015lbs
Average Load: 54,254lbs/flt
Fuel Used: 39,741lbs
Avg. Fuel Used: 9,935lbs/flt
Fuel Expense: $34,177
Avg. Fuel Expense: $8,544
Avg. Fuel Cost: $0.86/lbs
Total Gross Income: $288,177
Pilot Pay: $676
Total Expenses: $31,331
Total Revenue: $221,637
Average Revenue: $72,044.17